Terminal Aerodrome Forecast
Issued by NWS

Home | Current Version | Previous Version | Text Only | Print | Product List | Glossary On
Versions: 1 2 3 4 5 6 7 8 9 10 11 12 13
000
FTUS41 KLWX 012332
TAFMTN
TAF
KMTN 012332Z 0200/0224 14006KT 4SM -FZRA OVC005
     FM020100 19006KT 3SM -FZRA BKN009 OVC015
     FM020500 23006KT 4SM -FZDZ SCT011 OVC020
     FM020700 28007KT P6SM SCT020 OVC050
     FM021300 31011KT P6SM BKN140
     FM021600 31014G22KT P6SM SCT250
      AMD NOT SKED 0202/0212=

USA.gov is the U.S. government's official web portal to all federal, state and local government web resources and services.